Time;durP1;ratioP1;P1;durP2;ratioP2;P2;SDS_P1;SDS_P2;PMS_P1;PMS_P2;Temp;Humidity;BMP_temperature;BMP_pressure;BME280_temperature;BME280_humidity;BME280_pressure;Samples;Min_cycle;Max_cycle;Signal;HPM_P1;HPM_P2
2023/04/09 00:01:07;;;;;;;67.22;41.38;;;;;;;9.29;100.00;102524.63;4974166;28;20031;-77
2023/04/09 00:03:33;;;;;;;69.35;42.25;;;;;;;9.26;100.00;102522.00;4974484;28;20463;-77
2023/04/09 00:05:58;;;;;;;63.45;40.10;;;;;;;9.23;100.00;102521.97;4974652;28;20075;-77
2023/04/09 00:08:24;;;;;;;66.53;42.15;;;;;;;9.25;100.00;102517.63;4974304;28;20030;-77
2023/04/09 00:10:50;;;;;;;63.95;40.55;;;;;;;9.25;100.00;102519.34;4973710;28;20062;-77
2023/04/09 00:13:16;;;;;;;68.85;41.45;;;;;;;9.26;100.00;102516.78;4973990;28;20046;-77
2023/04/09 00:15:42;;;;;;;69.85;41.35;;;;;;;9.22;100.00;102516.72;4973986;28;20092;-77
2023/04/09 00:18:08;;;;;;;65.68;41.22;;;;;;;9.17;100.00;102508.88;4969435;28;20085;-77
2023/04/09 00:20:33;;;;;;;64.78;40.85;;;;;;;9.15;100.00;102502.78;4974718;28;20030;-77
2023/04/09 00:22:58;;;;;;;61.25;39.45;;;;;;;9.20;100.00;102516.72;4974940;28;20033;-77
2023/04/09 00:25:24;;;;;;;62.15;40.25;;;;;;;9.22;100.00;102514.13;4972106;28;20077;-77
2023/04/09 00:27:49;;;;;;;63.45;39.75;;;;;;;9.18;100.00;102507.16;4975100;28;20027;-77
2023/04/09 00:30:15;;;;;;;58.75;38.33;;;;;;;9.12;100.00;102493.25;4973872;28;20105;-77
2023/04/09 00:32:41;;;;;;;62.95;39.25;;;;;;;9.18;100.00;102509.75;4974091;28;20030;-77
2023/04/09 00:35:07;;;;;;;64.82;38.33;;;;;;;9.19;100.00;102501.97;4974326;28;20038;-77
2023/04/09 00:37:32;;;;;;;60.80;38.78;;;;;;;9.14;100.00;102496.72;4973906;28;20026;-77
2023/04/09 00:39:57;;;;;;;61.60;38.97;;;;;;;9.14;100.00;102491.50;4974308;28;20034;-77
2023/04/09 00:42:23;;;;;;;61.95;40.45;;;;;;;9.21;100.00;102507.19;4974118;28;20463;-77
2023/04/09 00:44:48;;;;;;;68.30;43.00;;;;;;;9.17;100.00;102500.22;4973937;28;20031;-76
2023/04/09 00:47:13;;;;;;;62.80;41.55;;;;;;;9.14;100.00;102494.13;4974360;28;20492;-77
2023/04/09 00:49:39;;;;;;;60.00;38.45;;;;;;;9.18;100.00;102499.34;4974451;28;20106;-77
2023/04/09 00:52:04;;;;;;;52.22;34.55;;;;;;;9.13;100.00;102500.19;4973502;28;20029;-77
2023/04/09 00:54:30;;;;;;;49.70;33.17;;;;;;;9.16;100.00;102504.56;4974343;28;20108;-77
2023/04/09 00:56:57;;;;;;;51.15;33.80;;;;;;;9.14;100.00;102506.25;4974308;28;20027;-76
2023/04/09 00:59:24;;;;;;;48.97;33.42;;;;;;;9.14;100.00;102501.91;4959672;28;20507;-77
2023/04/09 01:01:49;;;;;;;50.22;32.72;;;;;;;9.15;100.00;102502.78;4974252;28;20034;-76
2023/04/09 01:04:14;;;;;;;48.80;32.22;;;;;;;9.09;100.00;102490.63;4968177;28;20047;-76
2023/04/09 01:06:50;;;;;;;47.55;31.38;;;;;;;9.13;100.00;102500.19;4954433;28;20023;-77
2023/04/09 01:09:32;;;;;;;47.28;32.08;;;;;;;9.13;100.00;102494.13;4954370;28;20075;-77
2023/04/09 01:12:17;;;;;;;46.25;30.77;;;;;;;9.13;100.00;102488.91;4955171;28;20027;-76
2023/04/09 01:15:17;;;;;;;46.47;31.02;;;;;;;9.12;100.00;102487.16;4953844;28;20067;-77
2023/04/09 01:17:51;;;;;;;45.28;30.33;;;;;;;9.02;100.00;102473.19;4933378;28;20126;-77
2023/04/09 01:20:40;;;;;;;49.97;30.48;;;;;;;9.08;100.00;102480.19;4953977;28;20026;-77
2023/04/09 01:23:14;;;;;;;45.63;29.75;;;;;;;9.07;100.00;102481.06;4953056;28;20483;-77
2023/04/09 01:26:18;;;;;;;44.30;29.25;;;;;;;9.06;100.00;102477.59;4954137;28;20038;-77
2023/04/09 01:28:46;;;;;;;44.70;29.97;;;;;;;8.99;100.00;102462.78;4951122;28;20039;-77
2023/04/09 01:31:15;;;;;;;43.78;29.98;;;;;;;9.02;100.00;102477.53;4954028;28;20295;-77
2023/04/09 01:33:41;;;;;;;43.47;29.48;;;;;;;9.02;100.00;102481.00;4953827;28;20035;-77
2023/04/09 01:36:07;;;;;;;45.03;30.00;;;;;;;8.98;100.00;102474.03;4954492;28;20030;-77
2023/04/09 01:38:35;;;;;;;44.50;30.20;;;;;;;9.04;100.00;102483.63;4954267;28;20016;-77
2023/04/09 01:41:02;;;;;;;42.78;29.08;;;;;;;8.96;100.00;102474.84;4953823;28;20031;-77
2023/04/09 01:43:29;;;;;;;45.25;28.92;;;;;;;9.00;100.00;102477.53;4954438;28;20364;-77
2023/04/09 01:45:56;;;;;;;45.08;29.98;;;;;;;9.02;100.00;102481.00;4954465;28;20028;-77
2023/04/09 01:48:22;;;;;;;42.42;29.50;;;;;;;8.99;100.00;102474.88;4952973;28;20035;-77
2023/04/09 01:50:48;;;;;;;45.22;30.00;;;;;;;8.99;100.00;102480.09;4954362;28;20023;-77
2023/04/09 01:53:14;;;;;;;46.00;29.88;;;;;;;8.96;100.00;102467.94;4953838;28;20031;-77
2023/04/09 01:55:39;;;;;;;46.15;30.30;;;;;;;8.97;100.00;102474.88;4953648;28;20029;-77
2023/04/09 01:58:04;;;;;;;49.22;31.02;;;;;;;8.97;100.00;102477.50;4953959;28;20028;-77
2023/04/09 02:00:44;;;;;;;48.35;31.75;;;;;;;8.97;100.00;102477.50;4954033;28;20059;-77
2023/04/09 02:03:17;;;;;;;47.30;31.10;;;;;;;8.94;100.00;102472.25;4953323;28;20023;-77
2023/04/09 02:06:00;;;;;;;45.00;30.42;;;;;;;8.92;100.00;102468.75;4953793;28;20537;-77
2023/04/09 02:08:27;;;;;;;48.35;31.50;;;;;;;8.94;100.00;102476.59;4954150;28;20055;-77
2023/04/09 02:10:55;;;;;;;43.95;31.02;;;;;;;8.95;100.00;102473.13;4945910;28;20042;-77
2023/04/09 02:13:22;;;;;;;44.40;30.17;;;;;;;8.92;100.00;102473.97;4954070;28;20066;-77
2023/04/09 02:15:49;;;;;;;46.33;30.92;;;;;;;8.92;100.00;102466.16;4954074;28;20102;-77
2023/04/09 02:18:28;;;;;;;48.90;32.70;;;;;;;8.91;100.00;102467.88;4953673;28;20054;-77
2023/04/09 02:20:58;;;;;;;50.40;31.88;;;;;;;8.85;100.00;102454.81;4954038;28;20039;-77
2023/04/09 02:23:24;;;;;;;48.03;31.73;;;;;;;8.90;100.00;102463.56;4952986;28;20031;-77
2023/04/09 02:25:51;;;;;;;49.50;32.92;;;;;;;8.85;100.00;102457.44;4954186;28;20066;-77
2023/04/09 02:28:17;;;;;;;51.67;33.88;;;;;;;8.84;100.00;102455.69;4953847;28;20024;-77
2023/04/09 02:30:43;;;;;;;55.70;34.25;;;;;;;8.90;100.00;102460.97;4953321;28;20039;-77
2023/04/09 02:33:08;;;;;;;50.30;33.33;;;;;;;8.93;100.00;102475.72;4953669;28;20368;-76
2023/04/09 02:35:33;;;;;;;47.50;32.00;;;;;;;8.88;100.00;102456.59;4954222;28;20058;-77
2023/04/09 02:37:59;;;;;;;47.88;32.97;;;;;;;8.87;100.00;102460.06;4952832;28;20035;-77
2023/04/09 02:40:24;;;;;;;49.25;33.35;;;;;;;8.51;100.00;102387.78;4956802;28;20031;-77
2023/04/09 02:42:53;;;;;;;53.17;33.72;;;;;;;8.91;100.00;102467.88;4956490;28;20467;-77
2023/04/09 02:45:18;;;;;;;48.75;32.88;;;;;;;8.88;100.00;102461.78;4954946;28;20118;-77
2023/04/09 02:47:43;;;;;;;55.28;34.65;;;;;;;8.89;100.00;102458.31;4956971;28;20122;-77
2023/04/09 02:50:09;;;;;;;50.78;34.00;;;;;;;8.88;100.00;102459.19;4956239;28;20050;-77
2023/04/09 02:52:34;;;;;;;52.65;35.03;;;;;;;8.84;100.00;102453.09;4955956;28;20106;-77
2023/04/09 02:54:59;;;;;;;52.55;35.03;;;;;;;8.82;100.00;102448.72;4955947;28;20107;-77
2023/04/09 02:57:25;;;;;;;50.38;32.80;;;;;;;8.82;100.00;102448.72;4956689;28;20032;-77
2023/04/09 02:59:50;;;;;;;53.80;34.85;;;;;;;8.84;100.00;102442.69;4956707;28;20459;-77
2023/04/09 03:02:15;;;;;;;51.90;33.47;;;;;;;8.83;100.00;102453.09;4956087;28;20046;-77
2023/04/09 03:04:41;;;;;;;55.80;34.53;;;;;;;8.83;100.00;102448.75;4956229;28;20491;-77
2023/04/09 03:07:06;;;;;;;61.05;35.65;;;;;;;8.82;100.00;102447.00;4953128;28;20061;-77
2023/04/09 03:09:32;;;;;;;56.28;35.30;;;;;;;8.79;100.00;102446.09;4956178;28;20151;-77
2023/04/09 03:11:57;;;;;;;55.72;35.55;;;;;;;8.72;100.00;102432.16;4955882;28;20023;-77
2023/04/09 03:14:23;;;;;;;57.13;35.97;;;;;;;8.76;100.00;102443.47;4955035;28;20049;-77
2023/04/09 03:16:48;;;;;;;54.83;35.03;;;;;;;8.73;100.00;102441.72;4955998;28;20471;-77
2023/04/09 03:19:13;;;;;;;59.22;35.35;;;;;;;8.64;100.00;102432.09;4955984;28;20089;-77
2023/04/09 03:21:39;;;;;;;60.45;34.75;;;;;;;8.65;100.00;102431.25;4956329;28;20042;-77
2023/04/09 03:24:05;;;;;;;57.40;35.47;;;;;;;8.66;100.00;102437.31;4955010;28;20027;-77
2023/04/09 03:26:35;;;;;;;58.78;35.67;;;;;;;8.64;100.00;102437.31;4955239;28;20030;-76
2023/04/09 03:29:01;;;;;;;57.00;37.28;;;;;;;8.62;100.00;102430.34;4956159;28;20039;-77
2023/04/09 03:31:26;;;;;;;58.08;35.95;;;;;;;8.48;100.00;102417.22;4954826;28;20038;-77
2023/04/09 03:33:51;;;;;;;62.70;37.40;;;;;;;8.56;100.00;102436.34;4955731;28;20031;-77
2023/04/09 03:36:16;;;;;;;61.53;36.67;;;;;;;8.50;100.00;102425.91;4953067;28;20082;-77
2023/04/09 03:38:42;;;;;;;60.50;36.97;;;;;;;8.53;100.00;102430.25;4956212;28;20374;-77
2023/04/09 03:41:07;;;;;;;63.67;36.50;;;;;;;8.45;100.00;102414.56;4953441;28;20046;-77
2023/04/09 03:43:32;;;;;;;64.40;37.22;;;;;;;8.48;100.00;102434.53;4955417;28;20042;-76
2023/04/09 03:45:57;;;;;;;60.30;36.80;;;;;;;8.47;100.00;102425.88;4955788;28;20023;-77
2023/04/09 03:48:23;;;;;;;61.65;37.38;;;;;;;8.48;100.00;102425.00;4955173;28;20467;-76
2023/04/09 03:50:48;;;;;;;61.42;36.05;;;;;;;8.47;100.00;102427.56;4954887;28;20318;-77
2023/04/09 03:53:13;;;;;;;60.95;36.05;;;;;;;8.45;100.00;102430.16;4955240;28;20031;-78
2023/04/09 03:55:38;;;;;;;63.28;35.72;;;;;;;8.41;100.00;102418.00;4954555;28;20054;-77
2023/04/09 03:58:04;;;;;;;62.88;36.28;;;;;;;8.43;100.00;102421.47;4956018;28;20035;-77
2023/04/09 04:00:32;;;;;;;59.42;35.95;;;;;;;8.44;100.00;102433.63;4954478;28;20046;-77
2023/04/09 04:02:57;;;;;;;61.05;37.83;;;;;;;8.40;100.00;102427.53;4955477;28;20074;-77
2023/04/09 04:05:24;;;;;;;60.90;36.60;;;;;;;8.37;100.00;102421.38;4955324;28;20035;-77
2023/04/09 04:07:50;;;;;;;59.70;35.20;;;;;;;8.40;100.00;102430.13;4955972;28;20027;-77
2023/04/09 04:10:15;;;;;;;60.95;37.17;;;;;;;8.29;100.00;102418.69;4954877;28;20039;-77
2023/04/09 04:12:40;;;;;;;55.60;35.08;;;;;;;8.38;100.00;102423.16;4955593;28;20019;-77
2023/04/09 04:15:06;;;;;;;55.20;33.53;;;;;;;8.36;100.00;102433.50;4955692;28;20045;-77
2023/04/09 04:17:31;;;;;;;60.30;35.55;;;;;;;8.35;100.00;102433.50;4955068;28;20027;-77
2023/04/09 04:19:57;;;;;;;60.08;35.72;;;;;;;8.34;100.00;102431.75;4955556;28;20030;-77
2023/04/09 04:22:23;;;;;;;56.53;34.03;;;;;;;8.28;100.00;102421.28;4954931;28;20057;-77
2023/04/09 04:24:48;;;;;;;56.10;33.53;;;;;;;8.26;100.00;102423.84;4955092;28;20136;-78
2023/04/09 04:27:14;;;;;;;55.38;33.42;;;;;;;8.25;100.00;102424.72;4955218;28;20031;-78
2023/04/09 04:29:39;;;;;;;54.65;34.15;;;;;;;8.24;100.00;102428.19;4954890;28;20019;-78
2023/04/09 04:32:04;;;;;;;61.92;35.03;;;;;;;8.20;100.00;102423.78;4955421;28;20106;-78
2023/04/09 04:34:30;;;;;;;56.30;34.90;;;;;;;8.19;100.00;102428.09;4955496;28;20066;-78
2023/04/09 04:36:55;;;;;;;56.55;33.50;;;;;;;8.13;100.00;102416.78;4954639;28;20071;-78
2023/04/09 04:39:20;;;;;;;56.28;34.22;;;;;;;8.09;100.00;102420.19;4955138;28;20450;-78
2023/04/09 04:41:45;;;;;;;57.92;34.38;;;;;;;7.96;100.00;102416.56;4955344;28;20027;-78
2023/04/09 04:44:11;;;;;;;57.97;34.47;;;;;;;7.95;100.00;102425.22;4954582;28;20016;-78
2023/04/09 04:46:36;;;;;;;57.05;34.05;;;;;;;7.82;100.00;102421.59;4955413;28;20395;-77
2023/04/09 04:49:01;;;;;;;62.05;34.55;;;;;;;7.70;100.00;102429.22;4955441;28;20031;-77
2023/04/09 04:51:30;;;;;;;57.20;34.20;;;;;;;7.57;100.00;102430.75;4954348;28;20035;-77
2023/04/09 04:53:55;;;;;;;54.20;33.05;;;;;;;7.46;100.00;102424.56;4955119;28;20027;-77
2023/04/09 04:56:20;;;;;;;51.80;31.90;;;;;;;7.33;100.00;102433.88;4954491;28;20487;-77
2023/04/09 04:58:46;;;;;;;53.13;32.47;;;;;;;7.22;100.00;102444.06;4954472;28;20019;-77
2023/04/09 05:01:11;;;;;;;55.75;32.55;;;;;;;7.07;100.00;102433.47;4952307;28;20483;-77
2023/04/09 05:03:36;;;;;;;56.05;32.83;;;;;;;7.00;100.00;102437.69;4953055;28;20038;-78
2023/04/09 05:06:05;;;;;;;52.70;32.45;;;;;;;6.92;100.00;102435.78;4972998;28;20046;-77
2023/04/09 05:08:30;;;;;;;58.95;33.42;;;;;;;6.74;100.00;102426.00;4974076;28;20506;-77
2023/04/09 05:10:56;;;;;;;52.85;30.98;;;;;;;6.72;100.00;102432.84;4972885;28;20030;-77
2023/04/09 05:13:22;;;;;;;54.67;32.58;;;;;;;6.68;100.00;102438.84;4971997;28;20022;-77
2023/04/09 05:15:47;;;;;;;57.17;31.85;;;;;;;6.67;100.00;102431.88;4972704;28;20025;-77
2023/04/09 05:18:12;;;;;;;54.95;31.77;;;;;;;6.63;100.00;102432.69;4973507;28;20026;-77
2023/04/09 05:20:37;;;;;;;56.58;32.45;;;;;;;6.54;100.00;102423.03;4973293;28;20027;-77
2023/04/09 05:23:03;;;;;;;54.13;32.75;;;;;;;6.57;100.00;102428.25;4973824;28;20027;-77
2023/04/09 05:25:28;;;;;;;58.03;31.70;;;;;;;6.53;100.00;102435.09;4973807;28;20486;-77
2023/04/09 05:27:54;;;;;;;55.35;32.42;;;;;;;6.53;100.00;102442.00;4973185;28;20027;-77
2023/04/09 05:30:20;;;;;;;50.85;31.42;;;;;;;6.51;100.00;102434.22;4973682;28;20098;-77
2023/04/09 05:32:45;;;;;;;53.67;31.33;;;;;;;6.50;100.00;102441.94;4973165;28;20034;-77
2023/04/09 05:35:10;;;;;;;56.55;31.08;;;;;;;6.45;100.00;102435.81;4964586;28;20109;-77
2023/04/09 05:37:35;;;;;;;58.33;32.58;;;;;;;6.39;100.00;102426.22;4974036;28;20026;-77
2023/04/09 05:40:01;;;;;;;53.50;30.95;;;;;;;6.37;100.00;102427.00;4972406;28;20378;-77
2023/04/09 05:42:26;;;;;;;54.08;30.90;;;;;;;6.44;100.00;102439.22;4973675;28;20106;-77
2023/04/09 05:44:52;;;;;;;52.65;31.77;;;;;;;6.49;100.00;102435.03;4973726;28;20049;-77
2023/04/09 05:47:17;;;;;;;51.20;30.92;;;;;;;6.44;100.00;102421.09;4972749;28;20031;-77
2023/04/09 05:49:42;;;;;;;50.05;30.48;;;;;;;6.49;100.00;102435.91;4973939;28;20062;-77
2023/04/09 05:52:07;;;;;;;56.33;32.17;;;;;;;6.51;100.00;102430.75;4973239;28;20025;-76
2023/04/09 05:54:34;;;;;;;54.13;30.45;;;;;;;6.56;100.00;102437.75;4972823;28;20459;-76
2023/04/09 05:56:59;;;;;;;53.47;31.63;;;;;;;6.56;100.00;102436.88;4973362;28;20058;-77
2023/04/09 05:59:24;;;;;;;56.70;31.75;;;;;;;6.60;100.00;102438.69;4973448;28;20054;-78
2023/04/09 06:01:50;;;;;;;50.95;30.48;;;;;;;6.60;100.00;102440.41;4972146;28;20063;-77
2023/04/09 06:04:15;;;;;;;52.15;30.17;;;;;;;6.53;100.00;102442.88;4967768;28;20082;-77
2023/04/09 06:06:40;;;;;;;54.67;32.08;;;;;;;6.65;100.00;102454.31;4954195;28;20078;-77
2023/04/09 06:09:05;;;;;;;56.47;32.90;;;;;;;6.68;100.00;102451.78;4953349;28;20074;-77
2023/04/09 06:11:31;;;;;;;54.72;31.33;;;;;;;6.72;100.00;102453.59;4954003;28;20559;-77
2023/04/09 06:13:56;;;;;;;55.85;31.65;;;;;;;6.69;100.00;102435.38;4955532;28;20031;-78
2023/04/09 06:16:22;;;;;;;56.90;32.92;;;;;;;6.78;100.00;102449.38;4957042;28;20042;-77
2023/04/09 06:18:49;;;;;;;51.10;31.52;;;;;;;6.82;100.00;102446.84;4957893;28;20027;-77
2023/04/09 06:21:15;;;;;;;48.75;30.67;;;;;;;6.79;100.00;102447.66;4957711;28;20030;-77
2023/04/09 06:23:40;;;;;;;51.58;30.10;;;;;;;6.86;100.00;102451.25;4957398;28;20023;-78
2023/04/09 06:26:05;;;;;;;53.90;31.90;;;;;;;6.89;100.00;102457.34;4957286;28;20095;-77
2023/04/09 06:28:32;;;;;;;52.50;31.40;;;;;;;6.92;100.00;102453.94;4958014;28;20475;-77
2023/04/09 06:30:57;;;;;;;51.60;31.75;;;;;;;6.96;100.00;102447.94;4956418;28;20035;-77
2023/04/09 06:33:23;;;;;;;55.10;32.33;;;;;;;6.99;100.00;102461.84;4953787;28;20046;-76
2023/04/09 06:35:48;;;;;;;52.78;31.02;;;;;;;7.01;100.00;102451.50;4955753;28;20467;-77
2023/04/09 06:38:14;;;;;;;54.03;31.90;;;;;;;7.05;100.00;102461.09;4955873;28;20526;-78
2023/04/09 06:40:40;;;;;;;51.67;30.08;;;;;;;7.05;100.00;102450.72;4957731;28;20027;-78
2023/04/09 06:43:05;;;;;;;54.58;31.80;;;;;;;7.12;100.00;102459.47;4956635;28;20361;-78
2023/04/09 06:45:32;;;;;;;50.38;31.08;;;;;;;7.13;100.00;102448.22;4955727;28;20475;-78
2023/04/09 06:47:58;;;;;;;56.08;33.15;;;;;;;7.21;100.00;102470.88;4956796;28;20043;-78
2023/04/09 06:50:23;;;;;;;55.33;32.72;;;;;;;7.21;100.00;102468.28;4956270;28;20031;-78
2023/04/09 06:52:56;;;;;;;54.50;32.40;;;;;;;7.23;100.00;102452.75;4956195;28;20467;-77
2023/04/09 06:55:21;;;;;;;52.53;32.90;;;;;;;7.34;100.00;102468.47;4956382;28;20049;-78
2023/04/09 06:57:46;;;;;;;55.13;32.85;;;;;;;7.37;100.00;102476.31;4956424;28;20475;-77
2023/04/09 07:00:12;;;;;;;53.63;33.50;;;;;;;7.42;100.00;102469.44;4957151;28;20506;-78
2023/04/09 07:02:37;;;;;;;51.90;32.63;;;;;;;7.46;100.00;102463.47;4955486;28;20490;-78
2023/04/09 07:05:03;;;;;;;49.95;32.40;;;;;;;7.49;100.00;102463.53;4966922;28;20542;-78
2023/04/09 07:07:29;;;;;;;53.38;31.95;;;;;;;7.55;100.00;102468.78;4976280;28;20538;-77
2023/04/09 07:09:54;;;;;;;54.58;32.42;;;;;;;7.62;100.00;102460.28;4976392;28;20058;-78
2023/04/09 07:12:26;;;;;;;52.97;33.22;;;;;;;7.67;100.00;102452.53;4974758;28;20022;-77
2023/04/09 07:14:52;;;;;;;52.85;32.83;;;;;;;7.72;100.00;102450.88;4975041;28;20030;-78
2023/04/09 07:17:17;;;;;;;54.42;34.13;;;;;;;7.86;100.00;102457.13;4973603;28;20034;-77
2023/04/09 07:19:43;;;;;;;52.65;33.22;;;;;;;7.86;100.00;102440.69;4975097;28;20078;-78
2023/04/09 07:22:08;;;;;;;55.42;34.42;;;;;;;8.09;100.00;102473.03;4975075;28;20105;-78
2023/04/09 07:24:33;;;;;;;54.97;34.53;;;;;;;8.17;100.00;102470.50;4975786;28;20101;-77
2023/04/09 07:27:02;;;;;;;52.63;32.42;;;;;;;8.30;100.00;102468.94;4973943;28;20383;-78
2023/04/09 07:29:27;;;;;;;51.47;33.20;;;;;;;8.46;100.00;102465.69;4975945;28;20107;-77
2023/04/09 07:31:53;;;;;;;49.38;33.28;;;;;;;8.56;100.00;102470.13;4975460;28;20027;-77
2023/04/09 07:34:19;;;;;;;49.95;32.63;;;;;;;8.67;100.00;102462.47;4974174;28;20471;-78
2023/04/09 07:36:44;;;;;;;52.67;33.85;;;;;;;8.86;100.00;102466.09;4974681;28;20082;-77
2023/04/09 07:39:09;;;;;;;49.47;32.55;;;;;;;9.03;100.00;102468.88;4974856;28;20014;-75
2023/04/09 07:41:35;;;;;;;53.58;34.42;;;;;;;9.07;100.00;102448.09;4974744;28;20046;-78
2023/04/09 07:44:02;;;;;;;52.38;33.38;;;;;;;9.26;100.00;102448.25;4975727;28;20015;-78
2023/04/09 07:46:28;;;;;;;48.97;33.35;;;;;;;9.53;100.00;102474.47;4973383;28;20074;-78
2023/04/09 07:48:53;;;;;;;50.10;32.97;;;;;;;9.65;100.00;102468.47;4977529;28;20026;-77
2023/04/09 07:51:19;;;;;;;49.10;33.85;;;;;;;9.64;100.00;102468.47;4973936;28;20050;-77
2023/04/09 07:53:44;;;;;;;50.15;33.90;;;;;;;9.59;100.00;102465.84;4983549;28;20717;-78
2023/04/09 07:56:10;;;;;;;52.42;35.03;;;;;;;9.56;100.00;102466.69;4975388;28;20069;-78
2023/04/09 07:58:36;;;;;;;52.47;34.80;;;;;;;9.54;100.00;102476.19;4974091;28;20479;-78
2023/04/09 08:01:02;;;;;;;51.75;34.35;;;;;;;9.53;100.00;102463.19;4976942;28;20026;-78
2023/04/09 08:03:30;;;;;;;52.10;35.08;;;;;;;9.46;100.00;102443.19;4976604;28;20034;-78
2023/04/09 08:05:55;;;;;;;50.70;33.38;;;;;;;9.64;100.00;102458.91;4977857;28;20093;-78
2023/04/09 08:08:21;;;;;;;54.80;34.83;;;;;;;9.68;100.00;102465.00;4974444;28;20027;-79
2023/04/09 08:10:46;;;;;;;52.63;35.08;;;;;;;9.56;100.00;102445.84;4973907;28;20031;-78
2023/04/09 08:13:12;;;;;;;54.50;36.15;;;;;;;9.67;100.00;102458.06;4974208;28;20098;-78
2023/04/09 08:15:37;;;;;;;55.35;36.80;;;;;;;9.74;100.00;102457.22;4973702;28;20027;-78
2023/04/09 08:18:02;;;;;;;52.45;36.22;;;;;;;9.82;100.00;102460.75;4974898;28;20105;-78
2023/04/09 08:20:28;;;;;;;53.30;36.17;;;;;;;9.93;100.00;102464.28;4973274;28;20031;-78
2023/04/09 08:22:54;;;;;;;56.00;36.47;;;;;;;9.99;100.00;102448.69;4973394;28;20593;-78
2023/04/09 08:25:19;;;;;;;55.03;35.97;;;;;;;10.25;100.00;102456.59;4974628;28;20023;-77
2023/04/09 08:27:45;;;;;;;53.05;36.47;;;;;;;10.37;99.76;102462.78;4974251;28;20110;-77
2023/04/09 08:30:10;;;;;;;51.65;34.70;;;;;;;10.43;99.88;102468.00;4972551;28;20023;-78
2023/04/09 08:32:36;;;;;;;49.45;35.03;;;;;;;10.54;99.26;102461.94;4973214;28;20102;-78
2023/04/09 08:35:02;;;;;;;52.33;35.58;;;;;;;10.82;100.00;102469.81;4974112;28;20530;-78
2023/04/09 08:37:28;;;;;;;51.95;34.33;;;;;;;10.91;98.30;102433.31;4955769;28;20026;-78
2023/04/09 08:39:53;;;;;;;51.50;35.25;;;;;;;11.33;95.82;102456.81;4971738;28;20368;-78
2023/04/09 08:42:20;;;;;;;52.53;34.60;;;;;;;11.65;93.66;102447.16;4983559;28;20091;-78
2023/04/09 08:44:46;;;;;;;51.05;34.15;;;;;;;11.82;92.14;102447.13;4973710;28;20027;-79
2023/04/09 08:47:12;;;;;;;49.92;35.30;;;;;;;11.73;89.83;102449.75;4974088;28;20530;-78
2023/04/09 08:49:40;;;;;;;50.63;34.10;;;;;;;11.80;91.29;102448.84;4974493;28;20065;-78
2023/04/09 08:52:06;;;;;;;50.00;34.53;;;;;;;11.94;91.18;102452.34;4974527;28;20014;-78
2023/04/09 08:54:31;;;;;;;52.42;34.40;;;;;;;12.09;89.64;102446.19;4972137;28;20037;-79
2023/04/09 08:56:57;;;;;;;46.55;34.45;;;;;;;12.00;86.83;102445.34;4973684;28;20031;-79
2023/04/09 08:59:23;;;;;;;47.67;33.80;;;;;;;11.88;87.76;102441.06;4973232;28;20395;-79
2023/04/09 09:01:52;;;;;;;47.45;34.00;;;;;;;11.94;89.03;102441.91;4973147;28;20031;-78
2023/04/09 09:04:18;;;;;;;45.60;33.28;;;;;;;12.15;88.44;102450.53;4972032;28;20043;-76
2023/04/09 09:06:44;;;;;;;47.90;33.60;;;;;;;12.28;87.54;102438.25;4970822;28;20019;-76
2023/04/09 09:09:12;;;;;;;49.30;34.25;;;;;;;12.40;85.08;102440.81;4972006;28;20471;-76
2023/04/09 09:11:39;;;;;;;51.08;35.15;;;;;;;12.40;85.97;102428.59;4973384;28;20089;-76
2023/04/09 09:14:06;;;;;;;49.38;32.97;;;;;;;12.69;84.44;102442.34;4973456;28;20027;-76
2023/04/09 09:16:34;;;;;;;47.20;33.92;;;;;;;12.88;83.58;102442.25;4973310;28;20061;-76
2023/04/09 09:19:01;;;;;;;45.78;32.72;;;;;;;13.08;81.58;102439.47;4972289;28;20026;-76
2023/04/09 09:21:27;;;;;;;48.05;33.33;;;;;;;13.24;81.03;102445.47;4973925;28;20089;-76
2023/04/09 09:23:52;;;;;;;49.42;33.70;;;;;;;13.42;79.24;102444.41;4971782;28;20106;-76
2023/04/09 09:26:23;;;;;;;47.45;33.83;;;;;;;13.57;79.58;102441.66;4972113;28;20113;-77
2023/04/09 09:28:48;;;;;;;47.53;33.33;;;;;;;13.89;76.37;102436.91;4972248;28;20066;-80
2023/04/09 09:31:15;;;;;;;46.28;32.28;;;;;;;14.13;76.26;102439.25;4972275;28;20463;-81
2023/04/09 09:33:41;;;;;;;43.65;32.50;;;;;;;14.08;74.97;102440.19;4972378;28;20030;-76
2023/04/09 09:36:09;;;;;;;47.92;33.22;;;;;;;13.65;75.10;102433.69;4972793;28;20389;-76
2023/04/09 09:38:52;;;;;;;43.97;32.53;;;;;;;13.47;76.65;102436.50;4971835;28;20034;-76
2023/04/09 09:41:18;;;;;;;46.67;31.45;;;;;;;13.35;77.58;102432.28;4972040;28;20031;-78
2023/04/09 09:43:43;;;;;;;40.25;28.67;;;;;;;13.32;76.05;102425.31;4973416;28;20042;-77
2023/04/09 09:46:10;;;;;;;40.80;30.08;;;;;;;13.35;77.30;102420.03;4972813;28;20022;-77
2023/04/09 09:48:35;;;;;;;46.03;32.30;;;;;;;13.41;78.11;102413.00;4972464;28;20018;-77
2023/04/09 09:51:07;;;;;;;44.53;32.83;;;;;;;13.40;76.30;102419.13;4972754;28;20045;-77
2023/04/09 09:53:35;;;;;;;40.90;31.25;;;;;;;13.47;75.66;102413.81;4971473;28;20119;-77
2023/04/09 09:56:03;;;;;;;35.33;26.00;;;;;;;13.55;72.22;102411.09;4971309;28;20379;-76
2023/04/09 09:58:37;;;;;;;34.65;25.95;;;;;;;13.22;73.31;102394.81;4986471;28;20033;-77
2023/04/09 10:01:08;;;;;;;37.22;27.05;;;;;;;13.05;75.97;102392.38;4972510;28;20035;-76
2023/04/09 10:03:36;;;;;;;39.97;29.27;;;;;;;13.37;78.46;102404.28;4971662;28;20027;-76
2023/04/09 10:06:02;;;;;;;41.08;29.98;;;;;;;13.56;74.39;102397.97;4971512;28;20035;-76
2023/04/09 10:08:30;;;;;;;26.27;20.63;;;;;;;13.85;66.67;102393.28;4971465;28;20123;-77
2023/04/09 10:10:55;;;;;;;27.92;21.02;;;;;;;13.89;65.32;102406.31;4973508;28;20025;-76
2023/04/09 10:13:28;;;;;;;29.95;21.42;;;;;;;13.82;66.84;102408.16;4972116;28;20039;-76
2023/04/09 10:15:54;;;;;;;27.75;21.40;;;;;;;13.65;69.33;102402.25;4972731;28;20026;-77
2023/04/09 10:18:20;;;;;;;27.98;20.38;;;;;;;13.61;69.77;102395.31;4970893;28;20455;-76
2023/04/09 10:20:57;;;;;;;27.92;21.33;;;;;;;13.96;67.30;102380.91;4970489;28;20101;-76
2023/04/09 10:23:31;;;;;;;24.73;18.00;;;;;;;14.59;64.21;102388.78;4971796;28;20414;-74
2023/04/09 10:25:57;;;;;;;23.35;17.85;;;;;;;14.50;60.99;102383.63;4972598;28;20034;-76
2023/04/09 10:28:23;;;;;;;26.95;19.08;;;;;;;14.66;62.07;102385.16;4972425;28;20031;-76
2023/04/09 10:30:48;;;;;;;23.40;17.50;;;;;;;14.97;61.98;102382.03;4973363;28;20027;-74
2023/04/09 10:33:16;;;;;;;21.52;16.67;;;;;;;14.78;59.45;102372.72;4971517;28;20030;-76
2023/04/09 10:35:45;;;;;;;22.80;17.52;;;;;;;14.54;62.27;102379.25;4972140;28;20034;-75
2023/04/09 10:38:11;;;;;;;23.20;17.67;;;;;;;14.61;59.79;102370.38;4972521;28;20379;-74
2023/04/09 10:40:40;;;;;;;28.48;19.10;;;;;;;14.84;60.46;102359.50;4972518;28;20026;-74
2023/04/09 10:43:08;;;;;;;27.27;19.65;;;;;;;15.08;61.00;102356.44;4972110;28;20114;-78
2023/04/09 10:45:41;;;;;;;26.00;19.10;;;;;;;15.35;60.86;102349.81;4972839;28;20537;-77
2023/04/09 10:48:13;;;;;;;24.23;18.58;;;;;;;15.29;58.06;102362.19;4969123;28;20463;-76
2023/04/09 10:50:42;;;;;;;20.90;17.23;;;;;;;14.96;58.06;102368.03;4959031;28;20459;-76
2023/04/09 10:53:21;;;;;;;24.85;18.38;;;;;;;14.69;60.03;102360.63;4972970;28;20407;-76
2023/04/09 10:55:49;;;;;;;24.40;18.25;;;;;;;14.44;61.76;102357.50;4969926;28;20035;-76
2023/04/09 10:58:14;;;;;;;25.52;19.85;;;;;;;14.35;60.08;102349.75;4970813;28;20110;-76
2023/04/09 11:00:42;;;;;;;30.15;20.65;;;;;;;14.40;62.34;102355.81;4972843;28;20102;-76
2023/04/09 11:03:29;;;;;;;26.90;20.77;;;;;;;14.61;64.10;102352.88;4974345;28;20073;-76
2023/04/09 11:05:59;;;;;;;28.65;21.67;;;;;;;15.02;61.41;102345.19;4962769;28;20042;-76
2023/04/09 11:08:28;;;;;;;25.60;19.52;;;;;;;15.33;60.33;102345.47;4975643;28;20054;-76